Flight Track Log - Related Links

Times and Time Zones

All times are in EDT time to prevent confusion due to time zone crossing. See the N12UP flight status page for this flight to view local times or setup timezone preferences in your user account.

Time Position Orientation Groundspeed Altitude Reporting Facility
EDT Latitude Longitude Course Direction KTS MPH feet Rate Location/Type
Thu 02:42:52 PM 42.4833 -71.3167 270° West 193 222 1,100  Level KA90
Thu 02:43:34 PM 42.4833 -71.3667 270° West 187 215 2,100 1,167 Climbing KA90
Thu 02:44:40 PM 42.5500 -71.3833 350° North 199 229 3,200 1,619 Climbing KA90
Thu 02:45:40 PM 42.5833 -71.3333 48° Northeast 199 229 5,500 2,104 Climbing KA90
Thu 02:46:54 PM 42.6450 -71.3194 North 198 228 7,900 2,104 Climbing Boston Center
Thu 02:47:54 PM 42.7031 -71.3014 13° North 188 216 10,200 2,050 Climbing Boston Center
Thu 02:48:54 PM 42.7489 -71.2864 14° North 183 211 12,000 1,450 Climbing Boston Center
Thu 02:49:54 PM 42.8031 -71.2997 350° North 174 200 13,100 500 Climbing Boston Center
Thu 02:50:54 PM 42.8453 -71.3497 319° Northwest 204 235 13,000 -50 Descending Boston Center
Thu 02:51:54 PM 42.9042 -71.4083 324° Northwest 237 273 13,000  Level Boston Center
Thu 02:52:54 PM 42.9528 -71.4642 320° Northwest 242 278 13,000  Level Boston Center
Thu 02:53:54 PM 43.0094 -71.5203 324° Northwest 236 272 13,000 50 Level Boston Center
Thu 02:54:54 PM 43.0661 -71.5675 329° Northwest 236 272 13,100 50 Climbing Boston Center
Thu 02:55:54 PM 43.1186 -71.6239 322° Northwest 237 273 13,100  Level Boston Center
Thu 02:56:54 PM 43.1711 -71.6800 322° Northwest 237 273 13,100  Level Boston Center
Thu 02:57:54 PM 43.2214 -71.7364 321° Northwest 237 273 13,100  Level Boston Center
Thu 02:58:54 PM 43.2717 -71.7928 321° Northwest 237 273 13,100  Level Boston Center
Thu 02:59:54 PM 43.3242 -71.8494 322° Northwest 237 273 13,100  Level Boston Center
Thu 03:00:54 PM 43.3767 -71.9058 322° Northwest 237 273 13,100  Level Boston Center
Thu 03:02:06 PM 43.4247 -71.9597 321° Northwest 242 278 13,100  Level Boston Center
Thu 03:03:06 PM 43.4875 -72.0253 323° Northwest 242 278 13,100  Level Boston Center
Thu 03:04:06 PM 43.5272 -72.0736 319° Northwest 242 278 13,100 -50 Level Boston Center
Thu 03:05:06 PM 43.5919 -72.1419 323° Northwest 237 273 13,000 -100 Descending Boston Center
Thu 03:06:06 PM 43.6444 -72.2019 320° Northwest 237 273 12,900 -50 Descending Boston Center
Thu 03:07:06 PM 43.6964 -72.2619 320° Northwest 237 273 12,900  Level Boston Center
Thu 03:08:06 PM 43.7486 -72.3164 323° Northwest 237 273 12,900  Level Boston Center
Thu 03:09:06 PM 43.8008 -72.3825 318° Northwest 242 278 12,900  Level Boston Center
Thu 03:10:18 PM 43.8633 -72.4517 321° Northwest 237 273 12,900 -136 Level Boston Center
Thu 03:11:18 PM 43.9156 -72.5064 323° Northwest 237 273 12,600 -550 Descending Boston Center
Thu 03:12:18 PM 43.9694 -72.5756 317° Northwest 237 273 11,800 -950 Descending Boston Center
Thu 03:13:18 PM 44.0258 -72.6422 320° Northwest 249 287 10,700 -1,400 Descending Boston Center
Thu 03:14:18 PM 44.0881 -72.6972 328° Northwest 261 300 9,000 -1,450 Descending Boston Center
Thu 03:15:18 PM 44.1464 -72.7583 323° Northwest 267 307 7,800 -1,050 Descending Boston Center
Thu 03:16:18 PM 44.1942 -72.8164 319° Northwest 244 281 6,900 -850 Descending Boston Center
Thu 03:17:18 PM 44.2417 -72.8661 323° Northwest 232 267 6,100 -800 Descending Boston Center
Thu 03:18:18 PM 44.2875 -72.9128 324° Northwest 215 247 5,300 -950 Descending Boston Center
Thu 03:19:18 PM 44.3289 -72.9594 321° Northwest 202 232 4,200 -1,150 Descending Boston Center
Thu 03:20:18 PM 44.3683 -73.0092 318° Northwest 196 226 3,000 -1,000 Descending Boston Center
Thu 03:21:30 PM 44.4056 -73.0561 318° Northwest 184 212 2,000 -818 Descending Boston Center
Thu 03:22:30 PM 44.4386 -73.1000 317° Northwest 171 197 1,200 -750 Descending Boston Center
Thu 03:23:30 PM 44.4614 -73.1381 310° West 141 162 500 -450 Descending Boston Center
Thu 03:24:30 PM 44.4819 -73.1733 309° West 117 135 300 4,250 Descending Boston Center
Thu 03:25:30 PM 44.5025 -73.2114 307° West 117 135 9,000 8,700 Climbing Boston Center
Thu 03:27:00 PM 44.4667 -73.1500 133° Southeast  Level FlightAware Approximate
Thu 03:34:00 PM 44.4719 -73.1533 133° Southeast  Level Estimated

Login

Don't have an account? Register now (free) for customized features, flight alerts, and more!